NCAR-RAP Real-Time Weather Data

Output produced by METARs form (10 April 2020  06:56 UTC)
found at http://weather.rap.ucar.edu/surface/
 
KMBS 100653Z AUTO 30011G20KT 10SM FEW029 BKN043 OVC050 01/M03 A2973 RMK AO2 SLP071 T00111028 $